»·PEaware :: CGHFO KVCV-KSDM

CGHFO :: KVCV-KSDM

FLIGHT INFORMATION

Flight Status: Arrived
Operator: Unknown
More flights by this operator :: More flights under this callsign
Pilot: Basie S. (26327)
Aircraft: BEECH AIRCRAFT DEBONAIR BONANZA
(BE33)
More flights by this aircraft type
Origin: KVCV Socal Logistics
United States
Destination: KSDM Brown Mun
United States
More flights between these airports :: More routes between these airports
Route: +ETHER APLES V442 PDZ V186 PGY
File this flight plan on PilotEdge
Remarks:
Altitude:
(Current/Filed)
9,000ft
Speed:
(Current/Filed)
155kts
Departed: 14-Jan-20 12:27 PM
Arrived: 14-Jan-20 01:30 PM
Distance/Time
Traveled:
123nm/1:02
Distance/Time
To Go:
Arrived

Flight Plot

Page will automatically refresh every two minutes.


Map Options




Map Legend


Flown Route
Filed Route
Departure Airport
Arrival Airport
Navaid (VOR, NDB)
Fix

Horizontal Profiles

Position Reports

Time Latitude Longitude Heading Altitude Ground
Speed
14-Jan-20 12:04 34.588333 -117.376341 313 2888ft 0kts
14-Jan-20 12:05 34.588333 -117.376341 313 2888ft 0kts
14-Jan-20 12:05 34.588333 -117.376341 313 2888ft 0kts
14-Jan-20 12:07 34.588333 -117.376341 313 2888ft 0kts
14-Jan-20 12:07 34.588333 -117.376341 313 2888ft 0kts
14-Jan-20 12:08 34.588333 -117.376341 313 2888ft 0kts
14-Jan-20 12:10 34.588333 -117.376341 313 2888ft 0kts
14-Jan-20 12:10 34.588333 -117.376341 313 2888ft 0kts
14-Jan-20 12:11 34.588333 -117.376341 313 2888ft 0kts
14-Jan-20 12:12 34.588333 -117.376341 313 2888ft 0kts
14-Jan-20 12:13 34.588333 -117.376341 313 2888ft 0kts
14-Jan-20 12:15 34.588333 -117.376341 313 2888ft 0kts
14-Jan-20 12:15 34.588333 -117.376341 313 2888ft 0kts
14-Jan-20 12:16 34.588333 -117.376341 313 2888ft 0kts
14-Jan-20 12:17 34.588333 -117.376341 313 2888ft 0kts
14-Jan-20 12:18 34.588333 -117.376341 313 2888ft 0kts
14-Jan-20 12:19 34.588333 -117.376341 313 2888ft 0kts
14-Jan-20 12:20 34.590650 -117.375113 30 2888ft 15kts
14-Jan-20 12:21 34.593256 -117.371671 88 2888ft 13kts
14-Jan-20 12:22 34.593701 -117.367887 11 2888ft 9kts
14-Jan-20 12:23 34.597886 -117.366890 9 2888ft 17kts
14-Jan-20 12:24 34.599071 -117.366599 8 2888ft 0kts
14-Jan-20 12:25 34.599341 -117.366542 10 2887ft 8kts
14-Jan-20 12:26 34.592857 -117.375480 226 3064ft 78kts
14-Jan-20 12:27 34.578605 -117.400477 289 3629ft 117kts
14-Jan-20 12:28 34.610018 -117.420791 287 4233ft 124kts
14-Jan-20 12:29 34.611884 -117.461349 274 4834ft 121kts
14-Jan-20 12:30 34.618122 -117.501574 278 5417ft 120kts
14-Jan-20 12:31 34.641864 -117.516614 44 5974ft 159kts
14-Jan-20 12:32 34.638737 -117.465418 114 6552ft 158kts
14-Jan-20 12:33 34.623941 -117.415299 113 7133ft 156kts
14-Jan-20 12:34 34.607040 -117.368267 152 7707ft 143kts
14-Jan-20 12:35 34.575178 -117.339809 153 8287ft 141kts
14-Jan-20 12:36 34.543688 -117.311728 153 8867ft 139kts
14-Jan-20 12:37 34.510364 -117.282726 153 9073ft 161kts
14-Jan-20 12:38 34.471713 -117.251068 153 9076ft 170kts
14-Jan-20 12:39 34.430237 -117.233336 200 9088ft 154kts
14-Jan-20 12:40 34.391959 -117.253263 203 9089ft 155kts
14-Jan-20 12:41 34.351018 -117.269767 213 9007ft 157kts
14-Jan-20 12:42 34.312521 -117.292484 215 8997ft 150kts
14-Jan-20 12:43 34.275480 -117.314876 215 9006ft 148kts
14-Jan-20 12:44 34.238486 -117.337241 215 9017ft 149kts
14-Jan-20 12:45 34.201080 -117.359823 214 9018ft 150kts
14-Jan-20 12:46 34.163372 -117.382561 214 9017ft 151kts
14-Jan-20 12:47 34.125506 -117.405376 214 9016ft 152kts
14-Jan-20 12:48 34.087249 -117.428381 214 9016ft 155kts
14-Jan-20 12:49 34.048325 -117.451644 214 9017ft 156kts
14-Jan-20 12:50 34.009292 -117.475055 214 9018ft 156kts
14-Jan-20 12:51 33.970463 -117.498342 214 9021ft 155kts
14-Jan-20 12:52 33.932007 -117.521382 214 9023ft 153kts
14-Jan-20 12:53 33.890570 -117.506853 148 9021ft 171kts
14-Jan-20 12:54 33.851738 -117.473675 146 9018ft 170kts
14-Jan-20 12:55 33.812828 -117.440867 146 9015ft 171kts
14-Jan-20 12:56 33.773696 -117.408107 144 9012ft 171kts
14-Jan-20 12:57 33.735395 -117.375968 153 9007ft 159kts
14-Jan-20 12:58 33.700236 -117.346641 153 9007ft 150kts
14-Jan-20 12:59 33.665478 -117.317734 143 9007ft 157kts
14-Jan-20 13:00 33.628075 -117.286506 144 9007ft 168kts
14-Jan-20 13:01 33.589195 -117.254192 145 9005ft 171kts
14-Jan-20 13:02 33.549900 -117.221579 148 8990ft 172kts
14-Jan-20 13:03 33.510682 -117.189014 148 8989ft 170kts
14-Jan-20 13:04 33.470994 -117.159684 176 8991ft 164kts
14-Jan-20 13:05 33.426282 -117.150285 176 9000ft 164kts
14-Jan-20 13:06 33.381491 -117.140711 177 9000ft 163kts
14-Jan-20 13:07 33.334355 -117.130826 176 8512ft 179kts
14-Jan-20 13:08 33.289210 -117.100448 153 7924ft 190kts
14-Jan-20 13:09 33.244187 -117.067896 153 7321ft 187kts
14-Jan-20 13:10 33.199773 -117.036494 153 6717ft 184kts
14-Jan-20 13:11 33.155719 -117.006109 153 6115ft 181kts
14-Jan-20 13:12 33.113275 -116.977372 153 5903ft 162kts
14-Jan-20 13:13 33.075320 -116.951854 153 5993ft 155kts
14-Jan-20 13:14 33.037289 -116.926851 153 5992ft 156kts
14-Jan-20 13:15 32.998946 -116.902027 153 5991ft 156kts
14-Jan-20 13:16 32.960575 -116.877372 153 5992ft 157kts
14-Jan-20 13:17 32.922023 -116.852851 153 5998ft 157kts
14-Jan-20 13:18 32.883594 -116.828875 153 6040ft 156kts
14-Jan-20 13:19 32.844858 -116.805146 153 6046ft 156kts
14-Jan-20 13:20 32.803700 -116.793088 191 5819ft 166kts
14-Jan-20 13:21 32.756850 -116.804856 193 5227ft 174kts
14-Jan-20 13:22 32.710867 -116.816634 193 5042ft 161kts
14-Jan-20 13:23 32.667795 -116.827474 193 5038ft 156kts
14-Jan-20 13:24 32.625388 -116.838055 193 5035ft 155kts
14-Jan-20 13:25 32.594921 -116.871785 234 4844ft 160kts
14-Jan-20 13:26 32.573090 -116.907363 254 3583ft 109kts
14-Jan-20 13:27 32.569728 -116.938474 273 1791ft 91kts
14-Jan-20 13:28 32.571491 -116.967067 278 594ft 85kts
14-Jan-20 13:29 32.572794 -116.981549 278 529ft 32kts
14-Jan-20 13:30 32.572209 -116.984123 177 529ft 1kts
14-Jan-20 13:31 32.570718 -116.988145 141 529ft 7kts

Navigation Log

Ident Type
Flight plan parsing failed, navigation log unavailable